Time;durP1;ratioP1;P1;durP2;ratioP2;P2;SDS_P1;SDS_P2;PMS_P1;PMS_P2;Temp;Humidity;BMP_temperature;BMP_pressure;BME280_temperature;BME280_humidity;BME280_pressure;Samples;Min_cycle;Max_cycle;Signal;HPM_P1;HPM_P2
2021/12/24 00:00:46;;;;;;;34.63;17.48;;;4.50;92.00;;;;;;5009852;28;20067;-67
2021/12/24 00:03:13;;;;;;;36.03;16.38;;;4.50;92.00;;;;;;5011466;28;20045;-67
2021/12/24 00:05:40;;;;;;;36.65;17.42;;;4.60;92.10;;;;;;5008155;28;20128;-67
2021/12/24 00:08:06;;;;;;;38.70;18.80;;;4.60;92.00;;;;;;5002147;28;20030;-66
2021/12/24 00:10:33;;;;;;;38.25;17.52;;;4.60;92.00;;;;;;5014101;28;20145;-66
2021/12/24 00:13:05;;;;;;;39.05;16.45;;;4.60;92.10;;;;;;5010064;28;20046;-66
2021/12/24 00:35:06;;;;;;;39.05;17.65;;;4.60;92.30;;;;;;5007636;28;20042;-66
2021/12/24 00:37:16;;;;;;;32.08;15.60;;;4.80;92.60;;;;;;5005719;28;20096;-66
2021/12/24 00:39:54;;;;;;;35.65;16.73;;;4.70;92.50;;;;;;5013709;28;20029;-66
2021/12/24 00:42:20;;;;;;;35.20;15.35;;;4.80;92.50;;;;;;5017526;28;20152;-66
2021/12/24 00:44:46;;;;;;;38.45;17.58;;;4.80;92.60;;;;;;5009342;28;20030;-66
2021/12/24 00:47:11;;;;;;;33.53;16.88;;;4.80;92.60;;;;;;5013534;28;20433;-66
2021/12/24 00:49:37;;;;;;;32.85;16.63;;;4.80;92.80;;;;;;5012478;28;20026;-66
2021/12/24 00:52:19;;;;;;;34.42;16.17;;;4.90;92.80;;;;;;5014158;28;20087;-66
2021/12/24 00:57:36;;;;;;;32.78;15.95;;;4.90;92.70;;;;;;5018364;28;20025;-66
2021/12/24 01:00:06;;;;;;;37.60;16.60;;;5.00;92.70;;;;;;5011510;28;20030;-66
2021/12/24 01:02:32;;;;;;;33.90;15.68;;;5.00;92.60;;;;;;5007586;28;20038;-66
2021/12/24 01:04:58;;;;;;;29.23;14.55;;;5.00;92.70;;;;;;5003417;28;20038;-66
2021/12/24 01:07:23;;;;;;;34.70;17.33;;;5.00;92.70;;;;;;5019307;28;20079;-66
2021/12/24 01:09:49;;;;;;;34.17;16.23;;;5.00;92.80;;;;;;5008371;28;20449;-66
2021/12/24 01:12:15;;;;;;;32.55;15.88;;;5.00;92.80;;;;;;5009058;28;20147;-66
2021/12/24 01:14:43;;;;;;;31.48;15.63;;;5.10;92.80;;;;;;4989737;28;20034;-65
2021/12/24 01:20:00;;;;;;;28.63;14.13;;;5.00;92.80;;;;;;5006535;28;20458;-65
2021/12/24 01:25:11;;;;;;;33.47;15.15;;;5.10;92.90;;;;;;5008186;28;20410;-65
2021/12/24 01:28:12;;;;;;;32.80;15.02;;;5.10;92.90;;;;;;5007593;28;20081;-65
2021/12/24 01:42:39;;;;;;;30.27;14.07;;;5.20;93.10;;;;;;5007539;28;20034;-65
2021/12/24 01:44:00;;;;;;;25.77;12.50;;;5.30;93.20;;;;;;5013709;28;20060;-65
2021/12/24 01:46:26;;;;;;;28.48;13.88;;;5.30;93.10;;;;;;5018527;28;20057;-65
2021/12/24 01:48:51;;;;;;;26.85;13.82;;;5.30;93.00;;;;;;5020980;28;20440;-65
2021/12/24 01:51:18;;;;;;;29.23;13.32;;;5.30;93.10;;;;;;4995327;28;20033;-65
2021/12/24 01:53:50;;;;;;;29.50;14.73;;;5.40;93.00;;;;;;5005014;28;20061;-65
2021/12/24 01:56:16;;;;;;;30.00;14.45;;;5.40;92.90;;;;;;5007253;28;20121;-65
2021/12/24 01:58:42;;;;;;;28.80;14.40;;;5.50;93.20;;;;;;5010430;28;20033;-65
2021/12/24 02:01:08;;;;;;;23.88;12.27;;;5.50;92.90;;;;;;5003368;28;20174;-65
2021/12/24 02:03:34;;;;;;;26.73;12.48;;;5.50;92.90;;;;;;5016354;28;20131;-65
2021/12/24 02:05:59;;;;;;;22.70;11.40;;;5.50;92.90;;;;;;5012941;28;21157;-65
2021/12/24 02:08:25;;;;;;;26.42;12.77;;;5.50;92.90;;;;;;5009367;28;20033;-65
2021/12/24 02:10:51;;;;;;;24.83;12.80;;;5.50;92.90;;;;;;5006470;28;20057;-65
2021/12/24 02:13:19;;;;;;;22.83;12.18;;;5.50;92.90;;;;;;5003045;28;20025;-65
2021/12/24 02:28:57;;;;;;;22.33;12.63;;;5.60;93.40;;;;;;5002308;28;20030;-65
2021/12/24 02:31:26;;;;;;;26.08;12.82;;;5.60;93.40;;;;;;5016872;28;20036;-64
2021/12/24 02:33:52;;;;;;;24.38;12.68;;;5.70;93.50;;;;;;5006412;28;20037;-65
2021/12/24 02:36:20;;;;;;;22.02;12.15;;;5.70;93.50;;;;;;5009295;28;20033;-65
2021/12/24 02:38:47;;;;;;;25.92;12.95;;;5.80;93.50;;;;;;4988009;28;20450;-65
2021/12/24 02:41:13;;;;;;;23.77;11.82;;;5.80;93.50;;;;;;5005114;28;20036;-65
2021/12/24 02:43:41;;;;;;;22.73;11.82;;;5.80;93.50;;;;;;5001823;28;20045;-65
2021/12/24 02:46:11;;;;;;;24.20;12.73;;;5.80;93.40;;;;;;5009352;28;20057;-65
2021/12/24 02:54:03;;;;;;;24.95;12.73;;;5.80;93.60;;;;;;5002027;28;20129;-64
2021/12/24 02:56:32;;;;;;;24.77;12.20;;;5.80;93.70;;;;;;5012855;28;20037;-64
2021/12/24 02:59:01;;;;;;;25.27;12.07;;;5.90;93.70;;;;;;5007495;28;20406;-65
2021/12/24 03:01:31;;;;;;;25.58;11.90;;;5.90;93.80;;;;;;5008446;28;20100;-65
2021/12/24 03:03:57;;;;;;;23.85;12.45;;;5.90;93.60;;;;;;5007257;28;20158;-65
2021/12/24 03:06:26;;;;;;;22.63;11.98;;;5.90;93.70;;;;;;5002925;28;20147;-65
2021/12/24 03:08:52;;;;;;;20.95;12.27;;;6.00;93.70;;;;;;5002925;28;20034;-65
2021/12/24 03:11:19;;;;;;;24.55;13.30;;;6.00;93.60;;;;;;4986514;28;20033;-65
2021/12/24 03:13:45;;;;;;;21.80;11.63;;;6.00;93.70;;;;;;5006823;28;20035;-65
2021/12/24 03:16:11;;;;;;;20.38;10.75;;;6.00;93.60;;;;;;5008229;28;20092;-65
2021/12/24 03:18:39;;;;;;;22.92;11.30;;;6.00;93.60;;;;;;5006456;28;20069;-65
2021/12/24 03:21:14;;;;;;;21.00;11.38;;;6.10;93.50;;;;;;5009746;28;20073;-65
2021/12/24 03:23:44;;;;;;;19.90;10.95;;;6.10;93.50;;;;;;5011426;28;20037;-64
2021/12/24 03:26:14;;;;;;;23.33;10.90;;;6.10;93.50;;;;;;5007333;28;20040;-65
2021/12/24 03:28:42;;;;;;;21.10;10.88;;;6.10;93.50;;;;;;5011357;28;20149;-65
2021/12/24 03:31:08;;;;;;;24.67;11.70;;;6.20;93.60;;;;;;5006186;28;20052;-65
2021/12/24 03:33:36;;;;;;;21.10;12.25;;;6.20;93.60;;;;;;5008804;28;20092;-65
2021/12/24 03:36:05;;;;;;;20.83;11.13;;;6.20;93.50;;;;;;5004661;28;20036;-65
2021/12/24 03:38:32;;;;;;;19.35;9.60;;;6.20;93.40;;;;;;4998867;28;20031;-65
2021/12/24 03:40:58;;;;;;;19.13;10.48;;;6.20;93.30;;;;;;5006279;28;20764;-65
2021/12/24 03:43:24;;;;;;;17.80;9.15;;;6.20;93.60;;;;;;4997625;28;20037;-65
2021/12/24 03:48:22;;;;;;;16.00;9.50;;;6.20;93.50;;;;;;5008657;28;20040;-65
2021/12/24 03:56:26;;;;;;;17.65;8.43;;;6.30;93.40;;;;;;5015390;28;20037;-65
2021/12/24 03:58:52;;;;;;;16.38;9.30;;;6.30;93.40;;;;;;5008213;28;20037;-65
2021/12/24 04:01:41;;;;;;;15.55;8.35;;;6.30;93.40;;;;;;5028100;28;20037;-65
2021/12/24 04:04:26;;;;;;;13.07;7.97;;;6.30;93.40;;;;;;5013541;28;20100;-65
2021/12/24 04:07:12;;;;;;;15.82;7.88;;;6.30;93.30;;;;;;5019746;28;20496;-65
2021/12/24 04:10:13;;;;;;;14.27;8.27;;;6.30;93.40;;;;;;5014882;28;20044;-65
2021/12/24 04:12:58;;;;;;;14.30;7.90;;;6.30;93.40;;;;;;5013743;28;20042;-65
2021/12/24 04:15:24;;;;;;;13.70;8.02;;;6.30;93.40;;;;;;5017101;28;20044;-65
2021/12/24 04:17:50;;;;;;;13.88;7.35;;;6.30;93.50;;;;;;5012447;28;20049;-65
2021/12/24 04:25:46;;;;;;;11.50;6.15;;;6.30;93.60;;;;;;5025303;28;20025;-65
2021/12/24 04:28:11;;;;;;;13.23;7.47;;;6.40;93.60;;;;;;5011453;28;20025;-65
2021/12/24 04:30:44;;;;;;;11.35;6.78;;;6.40;93.50;;;;;;5017752;28;20038;-65
2021/12/24 04:33:29;;;;;;;13.25;7.00;;;6.40;93.50;;;;;;5006912;28;20037;-65
2021/12/24 04:36:32;;;;;;;10.52;6.30;;;6.40;93.70;;;;;;5011458;28;20040;-65
2021/12/24 05:03:33;;;;;;;8.38;4.75;;;6.60;94.10;;;;;;5016103;28;20056;-66
2021/12/24 05:06:26;;;;;;;8.23;4.50;;;6.60;94.10;;;;;;5014641;28;20021;-66
2021/12/24 05:08:55;;;;;;;7.18;4.20;;;6.60;93.90;;;;;;5015544;28;20461;-66
2021/12/24 05:11:22;;;;;;;6.40;4.25;;;6.70;94.00;;;;;;5015726;28;20143;-67
2021/12/24 05:13:50;;;;;;;5.05;3.40;;;6.70;93.90;;;;;;5015420;28;20033;-68
2021/12/24 05:16:47;;;;;;;5.93;3.22;;;6.70;93.80;;;;;;5002813;28;20045;-63
2021/12/24 05:22:33;;;;;;;3.92;3.20;;;6.70;94.00;;;;;;5008625;28;20057;-66
2021/12/24 05:25:06;;;;;;;5.97;3.75;;;6.70;94.00;;;;;;4992887;28;20100;-65
2021/12/24 05:27:33;;;;;;;5.25;3.25;;;6.80;94.20;;;;;;5007533;28;20037;-66
2021/12/24 05:29:58;;;;;;;5.25;3.20;;;6.80;94.10;;;;;;5002545;28;20022;-66
2021/12/24 05:32:24;;;;;;;4.70;3.13;;;6.80;94.00;;;;;;5016684;28;20083;-66
2021/12/24 05:34:50;;;;;;;6.18;3.92;;;6.80;94.10;;;;;;5012689;28;20048;-67
2021/12/24 05:37:16;;;;;;;3.50;2.80;;;6.80;94.00;;;;;;5011962;28;20033;-65
2021/12/24 05:39:42;;;;;;;3.45;2.58;;;6.80;94.10;;;;;;5004058;28;20213;-65
2021/12/24 05:42:08;;;;;;;4.53;2.53;;;6.80;94.10;;;;;;5006469;28;20026;-65
2021/12/24 05:44:33;;;;;;;5.93;3.50;;;6.90;94.00;;;;;;5000766;28;20367;-66
2021/12/24 05:47:13;;;;;;;7.13;4.80;;;6.90;94.20;;;;;;5009656;28;20026;-66
2021/12/24 05:49:42;;;;;;;5.78;4.10;;;6.90;94.20;;;;;;5000890;28;20098;-65
2021/12/24 05:52:27;;;;;;;5.90;4.32;;;6.90;94.10;;;;;;5005620;28;20099;-65
2021/12/24 05:55:06;;;;;;;4.15;3.22;;;6.90;94.10;;;;;;5007068;28;20029;-66
2021/12/24 05:57:32;;;;;;;4.57;3.35;;;6.90;94.10;;;;;;5016833;28;20713;-66
2021/12/24 05:59:58;;;;;;;3.22;2.70;;;6.90;94.20;;;;;;5011298;28;20034;-65
2021/12/24 06:02:25;;;;;;;4.90;3.47;;;7.00;94.20;;;;;;5008407;28;20033;-66
2021/12/24 06:04:50;;;;;;;4.10;3.00;;;7.00;94.20;;;;;;5013076;28;20389;-66
2021/12/24 06:07:16;;;;;;;3.55;3.05;;;7.00;94.10;;;;;;5007797;28;20034;-65
2021/12/24 06:09:42;;;;;;;4.45;3.05;;;7.00;94.10;;;;;;5004502;28;20107;-66
2021/12/24 06:12:08;;;;;;;3.78;3.10;;;7.00;94.10;;;;;;5010163;28;20030;-66
2021/12/24 06:14:33;;;;;;;3.75;3.05;;;7.10;94.10;;;;;;5005357;28;20042;-66
2021/12/24 06:17:05;;;;;;;5.97;4.00;;;7.10;94.10;;;;;;5007587;28;20029;-67
2021/12/24 06:19:30;;;;;;;9.68;5.47;;;7.10;94.10;;;;;;5009703;28;20107;-67
2021/12/24 06:21:57;;;;;;;14.25;7.60;;;7.10;94.10;;;;;;5007072;28;20037;-67
2021/12/24 06:24:23;;;;;;;11.88;6.03;;;7.20;94.20;;;;;;5008401;28;20128;-67
2021/12/24 06:26:50;;;;;;;11.10;5.63;;;7.20;94.10;;;;;;5002261;28;20541;-67
2021/12/24 06:29:17;;;;;;;5.60;3.55;;;7.20;94.10;;;;;;5008070;28;20163;-66
2021/12/24 06:31:43;;;;;;;7.70;4.43;;;7.20;94.10;;;;;;5010766;28;20384;-66
2021/12/24 06:34:08;;;;;;;11.90;5.10;;;7.20;94.20;;;;;;5010732;28;20069;-64
2021/12/24 06:36:37;;;;;;;13.48;6.50;;;7.20;94.10;;;;;;5004007;28;20574;-66
2021/12/24 06:39:06;;;;;;;7.03;3.75;;;7.20;94.10;;;;;;5009867;28;20041;-66
2021/12/24 06:41:33;;;;;;;7.07;4.45;;;7.30;94.10;;;;;;5007263;28;20048;-68
2021/12/24 06:43:59;;;;;;;5.75;3.25;;;7.30;94.10;;;;;;5007106;28;20018;-66
2021/12/24 06:46:25;;;;;;;6.05;3.55;;;7.30;94.20;;;;;;5005337;28;20056;-66
2021/12/24 06:48:56;;;;;;;4.25;2.90;;;7.30;94.20;;;;;;5010975;28;20034;-66
2021/12/24 06:51:26;;;;;;;4.82;3.40;;;7.30;94.20;;;;;;5004038;28;20029;-66
2021/12/24 06:53:53;;;;;;;6.50;3.78;;;7.30;94.30;;;;;;5008155;28;20794;-66
2021/12/24 06:56:20;;;;;;;4.30;2.38;;;7.30;94.30;;;;;;5011506;28;20112;-66
2021/12/24 06:58:49;;;;;;;3.67;2.97;;;7.30;94.20;;;;;;4998469;28;20482;-66
2021/12/24 07:01:17;;;;;;;5.10;3.25;;;7.30;94.30;;;;;;5005818;28;20116;-66
2021/12/24 07:03:43;;;;;;;4.82;3.33;;;7.30;94.30;;;;;;5001865;28;20382;-67
2021/12/24 07:06:09;;;;;;;5.80;3.95;;;7.30;94.40;;;;;;5003675;28;20026;-67
2021/12/24 07:08:35;;;;;;;3.47;3.08;;;7.40;94.40;;;;;;5005877;28;20096;-66
2021/12/24 07:11:02;;;;;;;3.10;2.55;;;7.40;94.40;;;;;;5012320;28;20030;-65
2021/12/24 07:13:28;;;;;;;2.85;2.17;;;7.40;94.50;;;;;;5009140;28;20263;-67
2021/12/24 07:15:54;;;;;;;2.90;2.60;;;7.50;94.30;;;;;;5008096;28;20818;-67
2021/12/24 07:18:21;;;;;;;3.60;2.60;;;7.50;94.30;;;;;;5004334;28;20033;-67
2021/12/24 07:20:47;;;;;;;3.25;2.28;;;7.50;94.20;;;;;;5005217;28;20069;-69
2021/12/24 07:23:12;;;;;;;2.70;2.47;;;7.50;94.20;;;;;;5012772;28;20402;-67
2021/12/24 07:25:38;;;;;;;2.72;2.35;;;7.50;94.20;;;;;;5016019;28;20025;-67
2021/12/24 07:28:04;;;;;;;2.45;2.13;;;7.50;94.20;;;;;;5008292;28;20089;-67
2021/12/24 07:30:30;;;;;;;2.80;2.55;;;7.60;94.30;;;;;;5008894;28;20044;-67
2021/12/24 07:32:56;;;;;;;3.17;2.30;;;7.60;94.20;;;;;;5008548;28;20029;-67
2021/12/24 07:35:22;;;;;;;2.75;2.08;;;7.60;94.30;;;;;;5004753;28;20524;-67
2021/12/24 07:37:48;;;;;;;3.45;2.50;;;7.60;94.20;;;;;;5008854;28;20488;-66
2021/12/24 07:40:17;;;;;;;4.90;2.47;;;7.60;94.10;;;;;;5007719;28;20764;-67
2021/12/24 07:42:45;;;;;;;2.17;1.90;;;7.60;94.10;;;;;;5004985;28;20030;-66
2021/12/24 07:45:11;;;;;;;5.78;3.13;;;7.60;94.10;;;;;;5006566;28;20120;-66
2021/12/24 07:47:41;;;;;;;5.43;2.90;;;7.70;94.10;;;;;;5009733;28;20120;-67
2021/12/24 07:53:06;;;;;;;2.08;1.85;;;7.70;94.00;;;;;;5028613;28;20041;-63
2021/12/24 07:55:33;;;;;;;3.35;2.65;;;7.70;94.10;;;;;;5012161;28;20099;-66
2021/12/24 07:57:59;;;;;;;3.63;2.50;;;7.70;94.00;;;;;;5016406;28;20089;-67
2021/12/24 08:00:26;;;;;;;6.53;3.20;;;7.70;94.10;;;;;;5014124;28;20739;-66
2021/12/24 08:02:54;;;;;;;5.65;3.10;;;7.70;94.20;;;;;;5017175;28;20041;-68
2021/12/24 08:05:22;;;;;;;5.32;3.38;;;7.70;94.20;;;;;;5012651;28;20036;-67
2021/12/24 08:07:48;;;;;;;5.55;3.35;;;7.70;94.10;;;;;;5015563;28;20029;-67
2021/12/24 08:10:15;;;;;;;5.53;3.05;;;7.80;94.20;;;;;;5015818;28;20040;-67
2021/12/24 08:12:41;;;;;;;5.05;3.03;;;7.80;94.10;;;;;;5008528;28;20120;-66
2021/12/24 08:15:07;;;;;;;4.05;2.90;;;7.80;94.10;;;;;;5011314;28;20037;-67
2021/12/24 08:17:34;;;;;;;3.80;3.03;;;7.90;94.10;;;;;;5017206;28;20137;-66
2021/12/24 08:20:01;;;;;;;4.07;3.08;;;7.90;94.10;;;;;;5014117;28;20034;-66
2021/12/24 08:22:26;;;;;;;3.35;2.60;;;7.90;94.10;;;;;;5016858;28;20025;-67
2021/12/24 08:24:52;;;;;;;3.70;2.35;;;7.90;94.30;;;;;;5004524;28;20061;-65
2021/12/24 08:27:18;;;;;;;4.28;2.60;;;7.90;94.20;;;;;;5004590;28;20038;-65
2021/12/24 08:29:44;;;;;;;4.38;2.60;;;8.00;94.10;;;;;;5001186;28;20851;-65
2021/12/24 08:32:10;;;;;;;4.88;3.00;;;8.00;94.10;;;;;;5004789;28;20036;-66
2021/12/24 08:34:36;;;;;;;4.95;2.92;;;8.00;94.10;;;;;;5015264;28;20183;-66
2021/12/24 08:37:02;;;;;;;4.40;3.35;;;8.00;93.90;;;;;;5005640;28;20116;-66
2021/12/24 08:39:28;;;;;;;5.50;3.20;;;8.10;94.00;;;;;;5007326;28;20025;-66
2021/12/24 08:41:55;;;;;;;6.60;3.50;;;8.10;94.00;;;;;;5010504;28;20519;-66
2021/12/24 08:44:27;;;;;;;5.90;3.10;;;8.10;94.00;;;;;;5000785;28;20034;-66
2021/12/24 08:46:54;;;;;;;6.13;3.00;;;8.10;94.10;;;;;;5003958;28;20022;-66
2021/12/24 08:49:20;;;;;;;5.60;3.08;;;8.10;94.20;;;;;;5015493;28;20029;-66
2021/12/24 08:51:50;;;;;;;4.07;2.40;;;8.10;94.20;;;;;;5013080;28;20029;-66
2021/12/24 08:54:17;;;;;;;4.47;2.65;;;8.10;94.20;;;;;;5013347;28;20116;-66
2021/12/24 08:56:43;;;;;;;4.60;3.15;;;8.20;94.20;;;;;;5011945;28;20053;-66
2021/12/24 08:59:09;;;;;;;5.00;2.67;;;8.20;94.20;;;;;;5005665;28;20048;-66
2021/12/24 09:01:35;;;;;;;4.10;2.67;;;8.20;94.10;;;;;;5022028;28;20026;-66
2021/12/24 09:04:00;;;;;;;5.32;2.65;;;8.20;94.20;;;;;;5009480;28;20044;-66
2021/12/24 09:06:26;;;;;;;2.50;2.08;;;8.30;94.20;;;;;;5007618;28;20059;-66
2021/12/24 09:08:52;;;;;;;4.28;2.67;;;8.30;94.20;;;;;;5012425;28;20079;-66
2021/12/24 09:11:18;;;;;;;4.07;2.58;;;8.40;94.20;;;;;;5007144;28;20026;-66
2021/12/24 09:13:45;;;;;;;3.38;2.20;;;8.40;94.20;;;;;;5003362;28;20457;-66
2021/12/24 09:16:11;;;;;;;3.25;2.58;;;8.50;94.00;;;;;;5012301;28;20117;-69
2021/12/24 09:18:40;;;;;;;3.38;2.42;;;8.50;93.90;;;;;;5019507;28;20041;-66
2021/12/24 09:21:14;;;;;;;2.58;2.10;;;8.50;93.70;;;;;;5011039;28;20585;-66
2021/12/24 09:23:39;;;;;;;3.17;2.42;;;8.50;93.70;;;;;;5013804;28;20117;-66
2021/12/24 09:26:05;;;;;;;3.35;2.95;;;8.50;93.80;;;;;;5005378;28;20040;-66
2021/12/24 09:28:31;;;;;;;2.10;1.75;;;8.50;93.80;;;;;;5013730;28;20689;-65
2021/12/24 09:30:56;;;;;;;1.67;1.58;;;8.60;93.80;;;;;;5009877;28;20034;-65
2021/12/24 09:33:22;;;;;;;2.42;1.40;;;8.60;93.70;;;;;;5016027;28;20033;-66
2021/12/24 09:35:48;;;;;;;1.30;1.23;;;8.60;93.70;;;;;;5007432;28;20033;-65
2021/12/24 09:38:14;;;;;;;1.40;1.30;;;8.60;93.70;;;;;;5015011;28;20045;-65
2021/12/24 09:40:39;;;;;;;1.40;1.30;;;8.60;93.70;;;;;;5004612;28;20248;-69
2021/12/24 09:43:05;;;;;;;1.25;1.15;;;8.60;93.70;;;;;;5006342;28;20034;-66
2021/12/24 09:45:31;;;;;;;1.33;1.15;;;8.60;93.70;;;;;;5012359;28;20029;-66
2021/12/24 09:47:57;;;;;;;3.88;1.38;;;8.60;93.60;;;;;;5008848;28;20150;-65
2021/12/24 09:50:25;;;;;;;1.65;1.42;;;8.60;93.60;;;;;;5005190;28;20102;-65
2021/12/24 09:52:52;;;;;;;1.48;1.27;;;8.60;93.50;;;;;;5004043;28;20038;-65
2021/12/24 09:55:24;;;;;;;1.17;1.08;;;8.60;93.50;;;;;;5014090;28;20041;-66
2021/12/24 09:57:51;;;;;;;1.38;1.27;;;8.60;93.40;;;;;;5008515;28;20150;-66
2021/12/24 10:00:21;;;;;;;0.82;0.82;;;8.60;93.40;;;;;;5011678;28;20470;-68
2021/12/24 10:02:50;;;;;;;1.45;1.10;;;8.60;93.30;;;;;;5007374;28;20490;-64
2021/12/24 10:05:34;;;;;;;1.13;1.02;;;8.60;93.40;;;;;;5014770;28;20037;-63
2021/12/24 10:08:04;;;;;;;1.10;1.00;;;8.60;93.60;;;;;;5003564;28;20037;-63
2021/12/24 10:10:31;;;;;;;1.50;1.05;;;8.60;93.50;;;;;;5017624;28;20076;-63
2021/12/24 10:13:25;;;;;;;1.00;0.80;;;8.60;93.40;;;;;;5010805;28;20034;-63
2021/12/24 10:15:56;;;;;;;0.82;0.82;;;8.60;93.40;;;;;;5006447;28;20021;-64
2021/12/24 10:18:45;;;;;;;1.02;0.95;;;8.60;93.50;;;;;;5005039;28;20087;-63
2021/12/24 10:21:20;;;;;;;1.58;1.25;;;8.60;93.40;;;;;;5014178;28;20121;-63
2021/12/24 10:23:50;;;;;;;2.17;1.57;;;8.60;93.50;;;;;;5001404;28;20745;-62
2021/12/24 10:26:20;;;;;;;3.92;1.77;;;8.60;93.50;;;;;;5010324;28;20433;-63
2021/12/24 10:29:12;;;;;;;2.28;1.60;;;8.60;93.50;;;;;;5007229;28;20034;-63
2021/12/24 10:31:48;;;;;;;1.33;1.23;;;8.60;93.50;;;;;;5015160;28;20045;-64
2021/12/24 10:34:18;;;;;;;1.05;0.98;;;8.60;93.50;;;;;;5016653;28;20041;-64
2021/12/24 10:36:54;;;;;;;0.90;0.90;;;8.50;93.70;;;;;;5012838;28;20022;-63
2021/12/24 10:39:22;;;;;;;1.48;1.38;;;8.60;93.50;;;;;;5010254;28;20088;-64
2021/12/24 10:41:49;;;;;;;0.80;0.80;;;8.50;93.50;;;;;;5006010;28;20037;-65
2021/12/24 10:44:21;;;;;;;1.67;1.40;;;8.60;93.40;;;;;;5004403;28;20034;-64
2021/12/24 10:46:59;;;;;;;1.85;1.73;;;8.60;93.50;;;;;;5002882;28;20537;-64
2021/12/24 10:54:56;;;;;;;1.17;1.08;;;8.60;93.40;;;;;;5006741;28;20029;-66
2021/12/24 10:57:29;;;;;;;2.13;1.58;;;8.60;93.40;;;;;;5009022;28;20800;-65
2021/12/24 10:59:57;;;;;;;1.52;1.40;;;8.60;93.40;;;;;;5005765;28;20030;-66
2021/12/24 11:02:35;;;;;;;1.35;1.25;;;8.60;93.30;;;;;;5002115;28;20036;-68
2021/12/24 11:05:02;;;;;;;1.17;0.95;;;8.60;93.30;;;;;;5010667;28;20033;-65
2021/12/24 11:07:39;;;;;;;1.10;1.00;;;8.60;93.20;;;;;;5007325;28;20485;-65
2021/12/24 11:10:11;;;;;;;;;;;8.60;93.20;;;;;;5007342;28;20790;-65
2021/12/24 11:12:42;;;;;;;1.30;1.10;;;8.60;93.00;;;;;;5004194;28;19913;-65
2021/12/24 11:15:22;;;;;;;3.60;2.50;;;8.50;93.20;;;;;;5004152;28;20041;-65
2021/12/24 11:17:49;;;;;;;1.98;1.70;;;8.50;93.20;;;;;;5002676;28;20037;-65
2021/12/24 11:20:15;;;;;;;2.17;1.98;;;8.50;92.80;;;;;;5002924;28;20746;-65
2021/12/24 11:22:50;;;;;;;3.95;2.67;;;8.40;92.80;;;;;;5012466;28;20048;-64
2021/12/24 11:25:18;;;;;;;3.13;2.50;;;8.40;92.80;;;;;;5006321;28;20129;-64
2021/12/24 11:27:44;;;;;;;9.93;5.25;;;8.40;92.70;;;;;;5006921;28;20108;-65
2021/12/24 11:30:10;;;;;;;5.57;2.90;;;8.40;92.70;;;;;;5002446;28;20040;-64
2021/12/24 11:32:36;;;;;;;8.63;4.93;;;8.40;92.60;;;;;;5000006;28;20107;-65
2021/12/24 11:35:03;;;;;;;8.60;4.60;;;8.30;92.50;;;;;;5005112;28;20394;-65
2021/12/24 11:37:30;;;;;;;6.78;3.58;;;8.30;92.40;;;;;;5008298;28;20029;-65
2021/12/24 11:39:57;;;;;;;7.38;3.90;;;8.20;92.50;;;;;;5004796;28;20057;-65
2021/12/24 11:42:29;;;;;;;5.32;2.72;;;8.10;92.90;;;;;;5010184;28;20033;-65
2021/12/24 11:44:56;;;;;;;4.97;2.53;;;8.10;92.60;;;;;;5001940;28;20127;-66
2021/12/24 11:47:22;;;;;;;6.68;4.13;;;8.10;92.50;;;;;;4999838;28;20030;-65
2021/12/24 11:49:48;;;;;;;5.13;3.08;;;8.10;92.60;;;;;;5005916;28;20034;-65
2021/12/24 11:52:15;;;;;;;3.80;2.25;;;8.10;92.50;;;;;;5008022;28;20112;-66
2021/12/24 11:54:40;;;;;;;2.25;1.80;;;8.10;92.40;;;;;;5004804;28;20033;-66
2021/12/24 11:57:16;;;;;;;4.05;2.67;;;8.10;92.40;;;;;;5010518;28;20037;-67
2021/12/24 11:59:43;;;;;;;5.93;2.67;;;8.10;92.60;;;;;;4995983;28;20036;-66
2021/12/24 12:02:09;;;;;;;4.43;2.88;;;8.10;92.60;;;;;;5000331;28;20041;-66
2021/12/24 12:04:35;;;;;;;1.95;1.45;;;8.10;92.60;;;;;;5007779;28;20668;-66
2021/12/24 12:07:16;;;;;;;0.95;0.90;;;8.00;92.50;;;;;;5006178;28;20025;-65
2021/12/24 12:09:44;;;;;;;1.58;1.48;;;8.00;92.60;;;;;;5002225;28;20443;-65
2021/12/24 12:12:14;;;;;;;1.60;1.40;;;7.90;92.50;;;;;;5003275;28;20857;-65
2021/12/24 12:14:41;;;;;;;5.30;3.30;;;7.80;92.10;;;;;;5004231;28;20044;-65
2021/12/24 12:17:08;;;;;;;1.00;0.90;;;7.70;92.20;;;;;;5008462;28;20065;-64
2021/12/24 12:19:46;;;;;;;2.42;1.40;;;7.60;92.00;;;;;;5008773;28;20037;-65
2021/12/24 12:24:58;;;;;;;1.20;0.88;;;7.30;91.90;;;;;;5005244;28;20038;-65
2021/12/24 12:27:35;;;;;;;1.83;0.60;;;7.30;92.10;;;;;;5014765;28;20877;-66
2021/12/24 12:30:19;;;;;;;0.28;0.20;;;7.20;91.80;;;;;;5008962;28;20084;-66
2021/12/24 12:32:46;;;;;;;0.30;0.30;;;7.20;91.90;;;;;;5016479;28;20026;-65
2021/12/24 12:35:13;;;;;;;0.57;0.47;;;7.20;91.80;;;;;;5013376;28;20037;-64
2021/12/24 12:37:56;;;;;;;0.40;0.40;;;7.20;91.80;;;;;;5019695;28;20033;-65
2021/12/24 12:40:21;;;;;;;0.65;0.65;;;7.20;91.90;;;;;;5019433;28;20091;-65
2021/12/24 12:42:54;;;;;;;0.57;0.50;;;7.10;92.00;;;;;;5020041;28;20037;-65
2021/12/24 12:45:47;;;;;;;0.38;0.38;;;7.10;91.90;;;;;;5018226;28;20104;-65
2021/12/24 12:48:22;;;;;;;0.32;0.32;;;7.00;91.80;;;;;;5015502;28;20041;-64
2021/12/24 12:50:58;;;;;;;0.20;0.20;;;6.90;91.10;;;;;;5007581;28;20052;-64
2021/12/24 12:53:27;;;;;;;0.80;0.30;;;6.80;91.40;;;;;;5007388;28;20719;-64
2021/12/24 12:56:14;;;;;;;0.30;0.30;;;6.70;91.20;;;;;;5011431;28;20037;-64
2021/12/24 12:58:41;;;;;;;;;;;6.70;91.20;;;;;;5012146;28;20091;-64
2021/12/24 13:01:15;;;;;;;0.68;0.50;;;6.60;91.10;;;;;;5012298;28;19909;-64
2021/12/24 13:03:55;;;;;;;0.43;0.40;;;6.60;91.20;;;;;;5008193;28;20038;-64
2021/12/24 13:06:23;;;;;;;2.05;1.85;;;6.50;91.00;;;;;;5008350;28;20511;-64
2021/12/24 13:08:49;;;;;;;1.52;1.05;;;6.40;91.10;;;;;;5005335;28;20092;-64
2021/12/24 13:11:21;;;;;;;1.60;0.57;;;6.40;91.00;;;;;;5005507;28;20830;-64
2021/12/24 13:13:56;;;;;;;0.88;0.65;;;6.30;91.10;;;;;;5013332;28;20037;-64
2021/12/24 13:16:45;;;;;;;0.75;0.65;;;6.20;91.20;;;;;;5010957;28;20041;-64
2021/12/24 13:25:06;;;;;;;1.02;0.90;;;6.10;91.20;;;;;;5007087;28;20667;-64
2021/12/24 13:27:37;;;;;;;2.28;1.00;;;6.00;91.30;;;;;;5010155;28;20076;-64
2021/12/24 13:30:06;;;;;;;1.38;1.05;;;5.90;91.10;;;;;;5008817;28;20025;-65
2021/12/24 13:32:37;;;;;;;1.25;1.05;;;5.80;91.00;;;;;;5007981;28;20029;-64
2021/12/24 13:35:03;;;;;;;2.08;0.93;;;5.60;91.10;;;;;;5011152;28;20037;-64
2021/12/24 13:37:33;;;;;;;1.42;1.20;;;5.60;90.90;;;;;;5004039;28;20389;-65
2021/12/24 13:39:59;;;;;;;1.13;1.02;;;5.50;90.70;;;;;;5009800;28;20063;-65
2021/12/24 13:42:24;;;;;;;1.25;1.17;;;5.50;90.60;;;;;;5012198;28;20025;-66
2021/12/24 13:45:00;;;;;;;1.40;1.30;;;5.40;90.50;;;;;;5008622;28;20790;-66
2021/12/24 13:47:39;;;;;;;1.30;1.00;;;5.40;90.60;;;;;;5005606;28;20079;-66
2021/12/24 13:55:20;;;;;;;1.33;1.05;;;5.20;90.90;;;;;;5011768;28;20152;-65
2021/12/24 13:57:54;;;;;;;1.70;1.50;;;5.20;91.00;;;;;;5009256;28;20084;-65
2021/12/24 14:00:21;;;;;;;1.30;1.20;;;5.20;91.10;;;;;;5008369;28;20817;-64
2021/12/24 14:02:56;;;;;;;1.33;1.20;;;5.10;91.10;;;;;;5004131;28;20026;-65
2021/12/24 14:05:23;;;;;;;1.65;1.33;;;5.10;91.00;;;;;;5010861;28;20034;-67
2021/12/24 14:08:11;;;;;;;1.73;1.40;;;5.00;91.30;;;;;;5003107;28;20046;-65
2021/12/24 14:10:38;;;;;;;2.33;1.83;;;5.00;91.40;;;;;;5010089;28;20033;-65
2021/12/24 14:13:23;;;;;;;2.35;1.98;;;5.00;91.80;;;;;;5012313;28;20052;-65
2021/12/24 14:19:12;;;;;;;3.03;2.42;;;5.00;91.20;;;;;;5007741;28;20480;-64
2021/12/24 14:24:15;;;;;;;2.30;1.90;;;4.90;91.60;;;;;;5008801;28;20068;-65
2021/12/24 14:26:44;;;;;;;3.65;2.08;;;4.90;91.50;;;;;;5007300;28;20057;-65
2021/12/24 14:29:10;;;;;;;3.50;2.40;;;4.90;91.60;;;;;;5008815;28;20030;-65
2021/12/24 14:31:51;;;;;;;2.85;2.35;;;4.90;91.60;;;;;;5004455;28;20034;-65
2021/12/24 14:34:41;;;;;;;2.75;2.33;;;4.90;91.90;;;;;;5010518;28;20453;-66
2021/12/24 14:37:15;;;;;;;4.63;2.50;;;4.90;91.90;;;;;;5006907;28;20064;-66
2021/12/24 14:39:46;;;;;;;4.05;2.60;;;4.90;91.90;;;;;;5008689;28;20450;-66
2021/12/24 14:42:18;;;;;;;3.05;2.30;;;4.90;91.70;;;;;;5012947;28;20034;-65
2021/12/24 14:44:45;;;;;;;3.42;2.53;;;4.80;91.90;;;;;;5008614;28;20096;-66
2021/12/24 14:47:12;;;;;;;3.45;2.25;;;4.80;91.90;;;;;;5005603;28;20091;-66
2021/12/24 14:49:42;;;;;;;3.83;2.65;;;4.90;91.70;;;;;;5009717;28;20030;-67
2021/12/24 14:52:25;;;;;;;5.68;4.60;;;4.90;91.80;;;;;;5017099;28;20022;-66
2021/12/24 14:55:15;;;;;;;6.05;5.45;;;4.90;91.90;;;;;;5006562;28;20473;-65
2021/12/24 14:57:53;;;;;;;3.55;2.80;;;4.90;91.90;;;;;;5010903;28;20045;-66
2021/12/24 15:00:44;;;;;;;4.35;2.85;;;4.90;91.80;;;;;;5011230;28;20033;-66
2021/12/24 15:03:14;;;;;;;3.70;2.30;;;4.90;91.90;;;;;;5000857;28;20053;-66
2021/12/24 15:05:45;;;;;;;2.22;2.03;;;4.90;91.90;;;;;;5008519;28;20039;-68
2021/12/24 15:08:15;;;;;;;2.58;2.15;;;4.90;91.80;;;;;;5005959;28;20040;-65
2021/12/24 15:11:00;;;;;;;2.30;1.90;;;4.90;91.80;;;;;;5015795;28;20026;-65
2021/12/24 15:13:27;;;;;;;2.65;2.10;;;4.90;91.80;;;;;;5004211;28;20075;-67